createdAt,value
2023-02-21T00:01:40.255Z,20.42
2023-02-21T00:04:07.070Z,19.60
2023-02-21T00:06:33.445Z,19.17
2023-02-21T00:08:59.883Z,19.05
2023-02-21T00:11:26.287Z,17.90
2023-02-21T00:13:52.801Z,18.08
2023-02-21T00:16:19.133Z,18.33
2023-02-21T00:18:45.712Z,18.05
2023-02-21T00:21:12.489Z,18.05
2023-02-21T00:23:39.175Z,18.42
2023-02-21T00:26:05.484Z,18.02
2023-02-21T00:28:31.859Z,16.63
2023-02-21T00:30:58.265Z,17.40
2023-02-21T00:33:24.876Z,16.77
2023-02-21T00:35:51.288Z,16.02
2023-02-21T00:38:17.696Z,15.95
2023-02-21T00:40:44.010Z,16.02
2023-02-21T00:43:10.385Z,14.73
2023-02-21T00:45:37.040Z,15.52
2023-02-21T00:48:03.799Z,15.23
2023-02-21T00:50:30.145Z,15.38
2023-02-21T00:52:56.538Z,14.70
2023-02-21T00:55:22.946Z,14.63
2023-02-21T00:57:49.671Z,15.32
2023-02-21T01:00:16.074Z,13.80
2023-02-21T01:02:42.580Z,14.07
2023-02-21T01:05:09.290Z,13.98
2023-02-21T01:07:35.938Z,13.88
2023-02-21T01:10:02.396Z,13.23
2023-02-21T01:12:28.755Z,13.10
2023-02-21T01:14:55.094Z,13.60
2023-02-21T01:17:21.740Z,13.25
2023-02-21T01:19:48.101Z,12.90
2023-02-21T01:22:14.928Z,13.02
2023-02-21T01:24:41.377Z,13.30
2023-02-21T01:27:08.006Z,13.88
2023-02-21T01:29:34.331Z,11.93
2023-02-21T01:32:01.352Z,13.30
2023-02-21T01:34:27.892Z,11.80
2023-02-21T01:36:54.430Z,11.93
2023-02-21T01:39:21.066Z,11.35
2023-02-21T01:41:47.406Z,12.50
2023-02-21T01:44:13.721Z,11.85
2023-02-21T01:46:40.265Z,12.30
2023-02-21T01:49:06.677Z,11.15
2023-02-21T01:51:32.973Z,11.50
2023-02-21T01:53:59.259Z,11.50
2023-02-21T01:56:25.658Z,11.45
2023-02-21T01:58:52.199Z,11.02
2023-02-21T02:01:19.206Z,11.25
2023-02-21T02:03:46.193Z,11.07
2023-02-21T02:06:12.765Z,10.90
2023-02-21T02:08:39.360Z,10.90
2023-02-21T02:11:06.098Z,10.50
2023-02-21T02:13:32.671Z,10.52
2023-02-21T02:15:59.026Z,10.43
2023-02-21T02:18:25.713Z,10.65
2023-02-21T02:20:52.119Z,10.90
2023-02-21T02:23:18.445Z,11.05
2023-02-21T02:25:44.780Z,9.65
2023-02-21T02:28:11.125Z,10.60
2023-02-21T02:30:37.638Z,10.63
2023-02-21T02:33:04.225Z,9.35
2023-02-21T02:35:30.682Z,9.70
2023-02-21T02:37:57.071Z,10.50
2023-02-21T02:40:23.703Z,9.50
2023-02-21T02:42:50.117Z,9.77
2023-02-21T02:45:16.786Z,9.93
2023-02-21T02:47:43.442Z,9.05
2023-02-21T02:50:09.793Z,9.57
2023-02-21T02:52:36.169Z,9.18
2023-02-21T02:55:02.461Z,10.30
2023-02-21T02:57:28.810Z,9.63
2023-02-21T02:59:55.064Z,8.98
2023-02-21T03:02:21.342Z,9.20
2023-02-21T03:04:48.052Z,9.00
2023-02-21T03:07:14.486Z,8.88
2023-02-21T03:09:40.791Z,8.93
2023-02-21T03:12:07.538Z,8.90
2023-02-21T03:14:33.904Z,9.10
2023-02-21T03:17:00.396Z,9.10
2023-02-21T03:19:26.772Z,9.20
2023-02-21T03:21:53.350Z,9.20
2023-02-21T03:24:19.673Z,9.73
2023-02-21T03:26:46.032Z,8.93
2023-02-21T03:29:12.418Z,9.00
2023-02-21T03:31:38.950Z,8.63
2023-02-21T03:34:05.340Z,9.32
2023-02-21T03:36:31.701Z,8.93
2023-02-21T03:38:58.093Z,8.95
2023-02-21T03:41:25.233Z,8.60
2023-02-21T03:43:51.702Z,8.85
2023-02-21T03:46:18.097Z,9.18
2023-02-21T03:48:44.464Z,8.95
2023-02-21T03:51:10.837Z,8.23
2023-02-21T03:53:37.146Z,8.25
2023-02-21T03:56:03.566Z,8.23
2023-02-21T03:58:30.181Z,8.77
2023-02-21T04:00:57.211Z,8.45
2023-02-21T04:03:23.550Z,8.18
2023-02-21T04:05:50.034Z,8.90
2023-02-21T04:08:16.416Z,8.77
2023-02-21T04:10:51.715Z,8.55
2023-02-21T04:13:19.195Z,8.43
2023-02-21T04:15:45.565Z,8.30
2023-02-21T04:18:11.946Z,8.65
2023-02-21T04:20:38.622Z,8.18
2023-02-21T04:23:05.074Z,8.95
2023-02-21T04:25:31.389Z,8.45
2023-02-21T04:27:57.906Z,7.93
2023-02-21T04:30:24.307Z,8.60
2023-02-21T04:32:50.904Z,8.40
2023-02-21T04:35:17.233Z,8.45
2023-02-21T04:37:43.740Z,8.13
2023-02-21T04:40:10.175Z,8.77
2023-02-21T04:42:36.714Z,8.43
2023-02-21T04:45:03.401Z,8.43
2023-02-21T04:47:29.764Z,7.97
2023-02-21T04:49:56.094Z,8.05
2023-02-21T04:52:22.536Z,8.30
2023-02-21T04:54:49.159Z,9.43
2023-02-21T04:57:15.598Z,7.65
2023-02-21T04:59:41.950Z,9.10
2023-02-21T05:02:08.347Z,8.50
2023-02-21T05:04:34.852Z,8.73
2023-02-21T05:07:01.301Z,9.07
2023-02-21T05:09:27.721Z,8.48
2023-02-21T05:11:54.313Z,8.40
2023-02-21T05:14:20.841Z,8.30
2023-02-21T05:16:47.247Z,8.40
2023-02-21T05:19:14.045Z,8.98
2023-02-21T05:21:40.374Z,8.30
2023-02-21T05:24:06.734Z,9.13
2023-02-21T05:26:33.381Z,7.53
2023-02-21T05:28:59.906Z,8.20
2023-02-21T05:31:26.453Z,8.48
2023-02-21T05:33:53.018Z,8.45
2023-02-21T05:36:19.417Z,9.50
2023-02-21T05:38:45.836Z,8.18
2023-02-21T05:41:12.163Z,7.80
2023-02-21T05:43:38.594Z,8.05
2023-02-21T05:46:05.295Z,8.30
2023-02-21T05:48:31.992Z,8.82
2023-02-21T05:50:58.427Z,8.45
2023-02-21T05:53:24.876Z,8.68
2023-02-21T05:55:51.228Z,8.38
2023-02-21T05:58:17.587Z,8.70
2023-02-21T06:00:43.965Z,8.35
2023-02-21T06:03:10.335Z,8.55
2023-02-21T06:05:36.662Z,8.85
2023-02-21T06:08:03.011Z,8.73
2023-02-21T06:10:29.354Z,8.60
2023-02-21T06:12:55.739Z,8.73
2023-02-21T06:15:22.079Z,8.55
2023-02-21T06:17:48.455Z,9.15
2023-02-21T06:20:14.852Z,8.57
2023-02-21T06:22:41.242Z,8.13
2023-02-21T06:25:07.581Z,8.27
2023-02-21T06:27:34.145Z,8.80
2023-02-21T06:30:00.506Z,8.75
2023-02-21T06:32:27.323Z,8.48
2023-02-21T06:34:53.956Z,8.63
2023-02-21T06:37:20.313Z,8.57
2023-02-21T06:39:46.636Z,8.88
2023-02-21T06:42:12.933Z,8.38
2023-02-21T06:44:39.336Z,7.78
2023-02-21T06:47:05.686Z,7.85
2023-02-21T06:49:32.141Z,9.32
2023-02-21T06:51:58.496Z,9.10
2023-02-21T06:54:24.909Z,7.85
2023-02-21T06:56:51.192Z,8.75
2023-02-21T06:59:17.630Z,8.82
2023-02-21T07:01:44.924Z,8.15
2023-02-21T07:04:11.408Z,9.10
2023-02-21T07:06:37.814Z,8.85
2023-02-21T07:09:04.314Z,8.85
2023-02-21T07:11:31.413Z,8.93
2023-02-21T07:13:57.986Z,9.32
2023-02-21T07:16:24.637Z,8.95
2023-02-21T07:18:50.962Z,8.77
2023-02-21T07:21:17.452Z,9.07
2023-02-21T07:23:44.104Z,8.02
2023-02-21T07:26:10.432Z,9.50
2023-02-21T07:28:37.150Z,9.65
2023-02-21T07:31:03.630Z,8.85
2023-02-21T07:33:30.162Z,9.05
2023-02-21T07:35:56.547Z,8.90
2023-02-21T07:38:23.747Z,9.32
2023-02-21T07:40:50.072Z,9.20
2023-02-21T07:43:17.101Z,9.02
2023-02-21T07:45:43.629Z,8.95
2023-02-21T07:48:10.031Z,9.10
2023-02-21T07:50:36.301Z,9.50
2023-02-21T07:53:02.727Z,8.93
2023-02-21T07:55:29.562Z,9.60
2023-02-21T07:57:56.226Z,9.07
2023-02-21T08:00:22.578Z,9.93
2023-02-21T08:02:49.121Z,9.45
2023-02-21T08:05:15.814Z,9.40
2023-02-21T08:07:42.609Z,8.88
2023-02-21T08:10:09.022Z,9.15
2023-02-21T08:12:35.340Z,8.68
2023-02-21T08:15:01.810Z,10.27
2023-02-21T08:17:28.454Z,10.02
2023-02-21T08:19:55.106Z,11.05
2023-02-21T08:22:21.475Z,12.55
2023-02-21T08:24:47.969Z,14.80
2023-02-21T08:27:14.314Z,14.00
2023-02-21T08:29:41.167Z,22.30
2023-02-21T08:32:07.747Z,19.67
2023-02-21T08:34:34.145Z,24.50
2023-02-21T08:37:00.465Z,35.80
2023-02-21T08:39:27.044Z,39.65
2023-02-21T08:41:53.436Z,43.15
2023-02-21T08:44:19.752Z,45.67
2023-02-21T08:46:47.782Z,46.17
2023-02-21T08:49:15.803Z,46.75
2023-02-21T08:51:42.685Z,48.60
2023-02-21T08:54:09.281Z,51.88
2023-02-21T08:56:35.971Z,54.40
2023-02-21T08:59:02.434Z,55.80
2023-02-21T09:01:28.842Z,57.08
2023-02-21T09:03:55.509Z,56.13
2023-02-21T09:06:21.892Z,58.88
2023-02-21T09:08:48.212Z,58.97
2023-02-21T09:11:15.046Z,60.38
2023-02-21T09:13:41.676Z,62.13
2023-02-21T09:16:08.313Z,62.10
2023-02-21T09:18:34.841Z,62.28
2023-02-21T09:21:01.135Z,62.25
2023-02-21T09:23:27.925Z,64.47
2023-02-21T09:25:54.369Z,63.10
2023-02-21T09:28:20.701Z,62.13
2023-02-21T09:30:47.055Z,61.20
2023-02-21T09:33:13.865Z,62.05
2023-02-21T09:35:41.085Z,62.20
2023-02-21T09:38:07.418Z,61.42
2023-02-21T09:40:33.792Z,62.00
2023-02-21T09:43:00.181Z,62.15
2023-02-21T09:45:26.602Z,63.60
2023-02-21T09:47:53.523Z,64.10
2023-02-21T09:50:20.143Z,64.40
2023-02-21T09:52:46.909Z,64.50
2023-02-21T09:55:13.225Z,63.83
2023-02-21T09:57:39.523Z,63.60
2023-02-21T10:00:05.839Z,66.72
2023-02-21T10:02:32.180Z,61.40
2023-02-21T10:04:58.917Z,64.90
2023-02-21T10:07:25.587Z,65.00
2023-02-21T10:09:51.954Z,62.45
2023-02-21T10:12:18.389Z,61.83
2023-02-21T10:14:45.456Z,60.17
2023-02-21T10:17:12.001Z,62.17
2023-02-21T10:19:38.272Z,60.13
2023-02-21T10:22:04.553Z,60.45
2023-02-21T10:24:30.989Z,61.35
2023-02-21T10:26:57.297Z,60.55
2023-02-21T10:29:24.010Z,60.70
2023-02-21T10:31:50.637Z,57.75
2023-02-21T10:34:17.258Z,58.00
2023-02-21T10:36:43.565Z,55.60
2023-02-21T10:39:09.906Z,56.92
2023-02-21T10:41:36.227Z,56.28
2023-02-21T10:44:02.574Z,58.03
2023-02-21T10:46:28.870Z,54.40
2023-02-21T10:48:55.699Z,53.45
2023-02-21T10:51:22.000Z,52.95
2023-02-21T10:53:48.400Z,50.45
2023-02-21T10:56:15.271Z,52.33
2023-02-21T10:58:42.150Z,51.20
2023-02-21T11:01:08.566Z,49.40
2023-02-21T11:03:34.871Z,50.05
2023-02-21T11:06:01.251Z,47.95
2023-02-21T11:08:27.578Z,48.65
2023-02-21T11:10:53.861Z,48.15
2023-02-21T11:13:20.312Z,47.28
2023-02-21T11:15:46.660Z,44.50
2023-02-21T11:18:12.966Z,45.95
2023-02-21T11:20:39.318Z,45.03
2023-02-21T11:23:06.016Z,42.35
2023-02-21T11:25:32.444Z,44.17
2023-02-21T11:27:58.755Z,42.80
2023-02-21T11:30:25.463Z,41.72
2023-02-21T11:32:51.931Z,42.28
2023-02-21T11:35:18.429Z,41.10
2023-02-21T11:37:45.463Z,43.53
2023-02-21T11:40:11.853Z,39.92
2023-02-21T11:42:38.140Z,38.28
2023-02-21T11:45:04.510Z,40.03
2023-02-21T11:47:30.928Z,38.90
2023-02-21T11:49:57.299Z,39.30
2023-02-21T11:52:23.690Z,36.97
2023-02-21T11:54:50.164Z,36.78
2023-02-21T11:57:16.502Z,36.00
2023-02-21T11:59:42.836Z,36.15
2023-02-21T12:02:09.153Z,35.38
2023-02-21T12:04:36.026Z,34.58
2023-02-21T12:07:02.531Z,34.88
2023-02-21T12:09:29.143Z,33.38
2023-02-21T12:11:55.506Z,32.92
2023-02-21T12:14:21.885Z,33.45
2023-02-21T12:16:48.433Z,33.47
2023-02-21T12:19:14.802Z,32.55
2023-02-21T12:21:41.170Z,31.92
2023-02-21T12:24:07.880Z,29.45
2023-02-21T12:26:34.736Z,30.35
2023-02-21T12:29:01.205Z,30.25
2023-02-21T12:31:27.731Z,29.50
2023-02-21T12:33:54.418Z,28.90
2023-02-21T12:36:20.788Z,31.00
2023-02-21T12:38:47.164Z,27.20
2023-02-21T12:41:13.740Z,28.30
2023-02-21T12:43:40.505Z,28.00
2023-02-21T12:46:07.185Z,28.48
2023-02-21T12:48:33.571Z,26.48
2023-02-21T12:50:59.992Z,27.08
2023-02-21T12:53:26.657Z,26.48
2023-02-21T12:55:52.987Z,27.15
2023-02-21T12:58:19.318Z,25.75
2023-02-21T13:00:45.690Z,23.85
2023-02-21T13:03:12.452Z,25.83
2023-02-21T13:05:38.757Z,24.65
2023-02-21T13:08:05.184Z,25.48
2023-02-21T13:10:31.617Z,26.05
2023-02-21T13:12:57.955Z,27.25
2023-02-21T13:15:24.862Z,28.92
2023-02-21T13:17:51.388Z,33.83
2023-02-21T13:20:18.244Z,35.05
2023-02-21T13:22:44.548Z,37.30
2023-02-21T13:25:11.050Z,38.15
2023-02-21T13:27:37.753Z,41.22
2023-02-21T13:30:04.231Z,45.40
2023-02-21T13:32:30.955Z,47.28
2023-02-21T13:34:57.290Z,49.22
2023-02-21T13:37:23.714Z,55.38
2023-02-21T13:39:51.599Z,57.13
2023-02-21T13:42:19.876Z,67.13
2023-02-21T13:44:46.450Z,72.82
2023-02-21T13:47:12.734Z,73.93
2023-02-21T13:49:39.081Z,75.35
2023-02-21T13:52:05.586Z,74.35
2023-02-21T13:54:31.958Z,79.70
2023-02-21T13:56:58.279Z,85.68
2023-02-21T13:59:25.675Z,86.40
2023-02-21T14:01:51.976Z,84.65
2023-02-21T14:04:18.309Z,82.45
2023-02-21T14:06:44.762Z,86.15
2023-02-21T14:09:11.088Z,87.85
2023-02-21T14:11:37.426Z,84.68
2023-02-21T14:14:04.067Z,85.60
2023-02-21T14:16:30.440Z,88.18
2023-02-21T14:18:56.826Z,86.07
2023-02-21T14:21:23.538Z,87.40
2023-02-21T14:23:50.052Z,87.00
2023-02-21T14:26:16.728Z,85.47
2023-02-21T14:28:43.153Z,84.60
2023-02-21T14:31:09.511Z,85.95
2023-02-21T14:33:36.144Z,84.18
2023-02-21T14:36:02.510Z,86.03
2023-02-21T14:38:29.382Z,86.65
2023-02-21T14:40:55.768Z,84.15
2023-02-21T14:43:22.116Z,84.70
2023-02-21T14:45:48.471Z,80.53
2023-02-21T14:48:14.955Z,80.45
2023-02-21T14:50:41.311Z,78.93
2023-02-21T14:53:07.777Z,76.70
2023-02-21T14:55:34.725Z,75.10
2023-02-21T14:58:01.270Z,72.32
2023-02-21T15:00:27.732Z,72.28
2023-02-21T15:02:54.042Z,69.63
2023-02-21T15:05:20.589Z,67.88
2023-02-21T15:07:47.068Z,66.78
2023-02-21T15:10:13.398Z,66.80
2023-02-21T15:12:39.774Z,64.82
2023-02-21T15:15:06.147Z,64.05
2023-02-21T15:17:32.418Z,60.40
2023-02-21T15:20:00.096Z,58.45
2023-02-21T15:22:26.439Z,58.97
2023-02-21T15:24:53.315Z,59.08
2023-02-21T15:27:19.720Z,54.70
2023-02-21T15:29:46.023Z,57.67
2023-02-21T15:32:12.499Z,54.38
2023-02-21T15:34:38.909Z,54.60
2023-02-21T15:37:05.488Z,53.70
2023-02-21T15:39:32.017Z,53.75
2023-02-21T15:41:58.465Z,53.38
2023-02-21T15:44:24.772Z,52.65
2023-02-21T15:46:51.569Z,55.45
2023-02-21T15:49:17.942Z,53.25
2023-02-21T15:51:44.286Z,53.28
2023-02-21T15:54:10.658Z,54.15
2023-02-21T15:56:37.057Z,54.85
2023-02-21T15:59:03.586Z,51.80
2023-02-21T16:01:30.292Z,50.85
2023-02-21T16:03:56.654Z,50.83
2023-02-21T16:06:23.688Z,49.45
2023-02-21T16:08:49.995Z,49.10
2023-02-21T16:11:17.032Z,46.95
2023-02-21T16:13:45.951Z,47.47
2023-02-21T16:16:12.994Z,46.35
2023-02-21T16:18:39.327Z,45.85
2023-02-21T16:21:06.398Z,44.67
2023-02-21T16:23:33.549Z,44.05
2023-02-21T16:25:59.932Z,44.08
2023-02-21T16:28:26.678Z,42.63
2023-02-21T16:30:53.247Z,41.47
2023-02-21T16:33:19.661Z,42.60
2023-02-21T16:35:46.556Z,41.50
2023-02-21T16:38:13.119Z,38.85
2023-02-21T16:40:39.571Z,38.33
2023-02-21T16:43:05.973Z,38.53
2023-02-21T16:45:32.795Z,36.28
2023-02-21T16:47:59.170Z,36.10
2023-02-21T16:50:25.864Z,36.45
2023-02-21T16:52:52.503Z,33.50
2023-02-21T16:55:19.286Z,32.28
2023-02-21T16:57:45.692Z,34.03
2023-02-21T17:00:12.059Z,33.22
2023-02-21T17:02:39.369Z,33.28
2023-02-21T17:05:06.405Z,31.80
2023-02-21T17:07:32.825Z,32.30
2023-02-21T17:09:59.629Z,33.33
2023-02-21T17:12:25.958Z,31.92
2023-02-21T17:14:52.350Z,31.33
2023-02-21T17:17:19.166Z,33.80
2023-02-21T17:19:45.560Z,31.58
2023-02-21T17:22:12.143Z,30.40
2023-02-21T17:24:38.536Z,30.52
2023-02-21T17:27:05.540Z,33.53
2023-02-21T17:29:32.005Z,32.08
2023-02-21T17:31:58.519Z,31.60
2023-02-21T17:34:25.474Z,32.90
2023-02-21T17:36:52.031Z,33.20
2023-02-21T17:39:18.783Z,32.70
2023-02-21T17:41:45.154Z,34.38
2023-02-21T17:44:12.143Z,37.65
2023-02-21T17:46:39.260Z,106.10
2023-02-21T17:49:05.798Z,139.48
2023-02-21T17:51:32.296Z,148.48
2023-02-21T17:53:58.591Z,141.70
2023-02-21T17:56:24.875Z,138.18
2023-02-21T17:58:51.229Z,134.20
2023-02-21T18:01:17.672Z,192.90
2023-02-21T18:03:44.150Z,285.08
2023-02-21T18:06:10.739Z,247.15
2023-02-21T18:08:37.066Z,242.55
2023-02-21T18:11:03.497Z,242.60
2023-02-21T18:13:29.947Z,227.25
2023-02-21T18:15:56.348Z,221.45
2023-02-21T18:18:22.662Z,212.10
2023-02-21T18:20:49.350Z,203.07
2023-02-21T18:23:17.023Z,194.25
2023-02-21T18:25:43.359Z,187.18
2023-02-21T18:28:09.914Z,327.33
2023-02-21T18:30:36.510Z,337.35
2023-02-21T18:33:02.882Z,293.02
2023-02-21T18:35:29.175Z,281.30
2023-02-21T18:37:55.810Z,275.38
2023-02-21T18:40:22.191Z,262.55
2023-02-21T18:42:48.690Z,252.48
2023-02-21T18:45:15.356Z,243.43
2023-02-21T18:47:41.715Z,232.27
2023-02-21T18:50:08.069Z,227.18
2023-02-21T18:52:34.431Z,223.60
2023-02-21T18:55:00.725Z,214.75
2023-02-21T18:57:27.123Z,209.73
2023-02-21T18:59:53.600Z,203.73
2023-02-21T19:02:19.963Z,189.80
2023-02-21T19:04:46.688Z,184.93
2023-02-21T19:07:13.411Z,184.27
2023-02-21T19:09:39.864Z,182.65
2023-02-21T19:12:06.287Z,176.05
2023-02-21T19:14:32.808Z,169.80
2023-02-21T19:16:59.117Z,166.77
2023-02-21T19:19:25.447Z,159.20
2023-02-21T19:21:52.062Z,149.95
2023-02-21T19:24:18.941Z,148.60
2023-02-21T19:26:45.474Z,149.32
2023-02-21T19:29:11.954Z,145.85
2023-02-21T19:31:39.270Z,145.25
2023-02-21T19:34:05.851Z,137.85
2023-02-21T19:36:32.210Z,131.57
2023-02-21T19:38:58.816Z,136.90
2023-02-21T19:41:25.148Z,179.90
2023-02-21T19:43:51.456Z,206.52
2023-02-21T19:46:17.820Z,227.30
2023-02-21T19:48:44.222Z,223.13
2023-02-21T19:51:10.911Z,215.98
2023-02-21T19:53:37.229Z,209.48
2023-02-21T19:56:04.227Z,206.85
2023-02-21T19:58:31.055Z,203.57
2023-02-21T20:00:57.858Z,191.80
2023-02-21T20:03:24.175Z,188.50
2023-02-21T20:05:50.491Z,179.02
2023-02-21T20:08:16.886Z,169.85
2023-02-21T20:10:43.538Z,168.73
2023-02-21T20:13:09.892Z,161.70
2023-02-21T20:15:36.881Z,157.57
2023-02-21T20:18:03.398Z,152.10
2023-02-21T20:20:29.825Z,167.82
2023-02-21T20:22:56.357Z,196.82
2023-02-21T20:25:22.748Z,248.18
2023-02-21T20:27:49.921Z,256.00
2023-02-21T20:30:17.100Z,258.00
2023-02-21T20:32:43.604Z,253.07
2023-02-21T20:35:09.926Z,240.75
2023-02-21T20:37:36.550Z,235.52
2023-02-21T20:40:03.039Z,247.15
2023-02-21T20:42:29.423Z,296.88
2023-02-21T20:44:56.009Z,331.40
2023-02-21T20:47:22.360Z,336.83
2023-02-21T20:49:48.629Z,324.58
2023-02-21T20:52:14.961Z,316.65
2023-02-21T20:54:41.564Z,309.92
2023-02-21T20:57:08.464Z,299.30
2023-02-21T20:59:35.033Z,293.67
2023-02-21T21:02:01.415Z,289.50
2023-02-21T21:04:28.216Z,272.17
2023-02-21T21:06:54.634Z,270.75
2023-02-21T21:09:20.950Z,261.63
2023-02-21T21:11:48.022Z,292.77
2023-02-21T21:14:16.126Z,338.27
2023-02-21T21:16:43.028Z,354.80
2023-02-21T21:19:09.309Z,350.98
2023-02-21T21:21:35.765Z,343.95
2023-02-21T21:24:02.117Z,335.48
2023-02-21T21:26:28.597Z,319.88
2023-02-21T21:28:54.970Z,318.70
2023-02-21T21:31:21.420Z,294.42
2023-02-21T21:33:47.890Z,286.48
2023-02-21T21:36:14.309Z,300.13
2023-02-21T21:38:40.685Z,278.83
2023-02-21T21:41:07.636Z,278.38
2023-02-21T21:43:34.005Z,379.80
2023-02-21T21:46:00.630Z,372.27
2023-02-21T21:48:27.040Z,368.52
2023-02-21T21:50:53.589Z,359.20
2023-02-21T21:53:20.052Z,361.23
2023-02-21T21:55:47.342Z,349.63
2023-02-21T21:58:13.852Z,334.08
2023-02-21T22:00:41.162Z,330.73
2023-02-21T22:03:08.191Z,324.90
2023-02-21T22:05:34.568Z,329.92
2023-02-21T22:08:00.966Z,352.55
2023-02-21T22:10:27.589Z,367.50
2023-02-21T22:12:54.285Z,377.10
2023-02-21T22:15:20.673Z,370.60
2023-02-21T22:17:47.042Z,371.23
2023-02-21T22:20:13.456Z,353.77
2023-02-21T22:22:40.198Z,347.33
2023-02-21T22:25:06.664Z,338.05
2023-02-21T22:27:33.662Z,327.73
2023-02-21T22:30:00.045Z,317.52
2023-02-21T22:32:26.534Z,307.80
2023-02-21T22:34:52.873Z,357.23
2023-02-21T22:37:19.642Z,427.75
2023-02-21T22:39:45.908Z,427.33
2023-02-21T22:42:12.871Z,427.52
2023-02-21T22:44:39.435Z,425.58
2023-02-21T22:47:06.328Z,443.83
2023-02-21T22:49:34.887Z,465.55
2023-02-21T22:52:01.293Z,483.83
2023-02-21T22:54:27.644Z,481.60
2023-02-21T22:56:54.112Z,503.25
2023-02-21T22:59:20.513Z,514.63
2023-02-21T23:01:47.618Z,546.38
2023-02-21T23:04:14.016Z,553.28
2023-02-21T23:06:40.774Z,536.97
2023-02-21T23:09:07.233Z,518.88
2023-02-21T23:11:34.045Z,518.47
2023-02-21T23:14:00.635Z,514.95
2023-02-21T23:16:27.216Z,495.25
2023-02-21T23:18:53.668Z,501.27
2023-02-21T23:21:20.400Z,495.73
2023-02-21T23:23:48.197Z,479.35
2023-02-21T23:26:21.065Z,471.50
2023-02-21T23:28:52.937Z,477.63
2023-02-21T23:31:19.559Z,462.00
2023-02-21T23:33:46.300Z,452.65
2023-02-21T23:36:12.954Z,449.33
2023-02-21T23:38:39.362Z,443.58
2023-02-21T23:41:05.838Z,434.98
2023-02-21T23:43:32.302Z,429.10
2023-02-21T23:45:59.040Z,428.25
2023-02-21T23:48:25.458Z,429.88
2023-02-21T23:50:51.824Z,411.92
2023-02-21T23:53:18.698Z,404.90
2023-02-21T23:55:45.077Z,403.83
2023-02-21T23:58:11.440Z,393.55
